Littleton, Colorado
Current Conditions -  °F | °C
As of 3:53 PM on Wednesday 22 Oct 2014 (Local Time) from KAPA Reporting Station
Broken Clouds Broken Clouds  
Wind Chill: 67°   Ceiling: 18000
Heat Index: 67°   Visibility: 10mi
Dew Point: 31°   Wind: 6mph
Humidity: 26%   Direction: 320°NW
Pressure: 30.08"   Gusts: NA
Location:  39.62°N, 105.01°W
Report Text: KAPA 222153Z 32005KT 10SM FEW070 SCT140 BKN180 19/M01 A3008 RMK AO2 SLP142 VIRGA DSNT S-W-N T01941006
Loading
Personal Weather Stations






























Interactive Weather Map
Tropical Storm Tracking
New forecast layout! Learn more

10-Day Weather Forecast

Advertisements
Track Severe Weather on mobile